CCA9691 ZHCC-ZBAA
Flight info
| Callsign | CCA9691 |
|---|---|
| Flight time | N/A |
| Altitude | 26600 |
| Route | OKT9W OKTOX W56 DUGEB DUGEB4A |
| Aircraft | B78X/H-SDE1E2E3FGHIJ2J3J4J5M1RWXY/LB1D1 |
Departure
| Time | 2026-05-08 05:25 |
|---|---|
| Airport | Zhengzhou Xinzheng International Airport (ZHCC) |
Arrival
| Time | N/A |
|---|---|
| Airport | Beijing Capital International Airport (ZBAA) |
| Time | Latitude | Longitude | Altitude | Speed | Heading |
|---|---|---|---|---|---|
| 2026-05-08 05:03 | 34.53750 | 113.83840 | 508 ft | 0 kts | 30° |
| 2026-05-08 05:23 | 34.53753 | 113.83842 | 535 ft | 3 kts | 30° |
| 2026-05-08 05:23 | 34.53776 | 113.83956 | 507 ft | 21 kts | 84° |
| 2026-05-08 05:23 | 34.53825 | 113.84011 | 506 ft | 9 kts | 23° |
| 2026-05-08 05:24 | 34.53888 | 113.84044 | 504 ft | 11 kts | 23° |
| 2026-05-08 05:24 | 34.53925 | 113.84134 | 505 ft | 15 kts | 97° |
| 2026-05-08 05:24 | 34.53913 | 113.84180 | 504 ft | 1 kts | 109° |
| 2026-05-08 05:24 | 34.53857 | 113.84351 | 505 ft | 49 kts | 113° |
| 2026-05-08 05:25 | 34.53642 | 113.84957 | 508 ft | 106 kts | 112° |
| 2026-05-08 05:25 | 34.53300 | 113.85984 | 516 ft | 153 kts | 112° |
| 2026-05-08 05:25 | 34.52920 | 113.87206 | 949 ft | 155 kts | 112° |
| 2026-05-08 05:25 | 34.52497 | 113.88389 | 1492 ft | 154 kts | 116° |
| 2026-05-08 05:26 | 34.52068 | 113.89586 | 2097 ft | 156 kts | 116° |
| 2026-05-08 05:26 | 34.51640 | 113.90852 | 2470 ft | 178 kts | 115° |
| 2026-05-08 05:26 | 34.51139 | 113.92303 | 2920 ft | 190 kts | 115° |
| 2026-05-08 05:26 | 34.50617 | 113.93832 | 3566 ft | 203 kts | 114° |
| 2026-05-08 05:27 | 34.50065 | 113.95470 | 4221 ft | 216 kts | 113° |
| 2026-05-08 05:27 | 34.49468 | 113.97202 | 4888 ft | 229 kts | 114° |
| 2026-05-08 05:27 | 34.49054 | 113.98399 | 5315 ft | 237 kts | 113° |
| 2026-05-08 05:27 | 34.48416 | 114.00289 | 5972 ft | 247 kts | 112° |
| 2026-05-08 05:28 | 34.47730 | 114.02299 | 6355 ft | 275 kts | 112° |
| 2026-05-08 05:28 | 34.46989 | 114.04462 | 7231 ft | 281 kts | 111° |
| 2026-05-08 05:28 | 34.46366 | 114.06703 | 8164 ft | 281 kts | 95° |
| 2026-05-08 05:28 | 34.46176 | 114.09059 | 9131 ft | 282 kts | 95° |
| 2026-05-08 05:29 | 34.45900 | 114.11424 | 10120 ft | 285 kts | 96° |
| 2026-05-08 05:29 | 34.45628 | 114.13835 | 10799 ft | 296 kts | 95° |
| 2026-05-08 05:29 | 34.45369 | 114.16396 | 11232 ft | 317 kts | 95° |
| 2026-05-08 05:29 | 34.45095 | 114.19130 | 11631 ft | 338 kts | 95° |
| 2026-05-08 05:30 | 34.44791 | 114.22039 | 11979 ft | 359 kts | 96° |
| 2026-05-08 05:30 | 34.44466 | 114.25107 | 12453 ft | 373 kts | 96° |
| 2026-05-08 05:30 | 34.44135 | 114.28263 | 13123 ft | 381 kts | 96° |
| 2026-05-08 05:30 | 34.43799 | 114.31473 | 13810 ft | 388 kts | 96° |
| 2026-05-08 05:31 | 34.43456 | 114.34743 | 14459 ft | 394 kts | 96° |
| 2026-05-08 05:31 | 34.43106 | 114.38057 | 15118 ft | 399 kts | 96° |
| 2026-05-08 05:31 | 34.42759 | 114.41414 | 15769 ft | 404 kts | 94° |
| 2026-05-08 05:31 | 34.42891 | 114.44801 | 16405 ft | 405 kts | 76° |
| 2026-05-08 05:32 | 34.43706 | 114.48074 | 17016 ft | 408 kts | 69° |
| 2026-05-08 05:32 | 34.44892 | 114.51185 | 17618 ft | 408 kts | 54° |
| 2026-05-08 05:32 | 34.46731 | 114.53797 | 18228 ft | 408 kts | 39° |
| 2026-05-08 05:32 | 34.49051 | 114.55747 | 18758 ft | 408 kts | 24° |
| 2026-05-08 05:33 | 34.51710 | 114.56905 | 19034 ft | 406 kts | 9° |
| 2026-05-08 05:33 | 34.54512 | 114.57292 | 19488 ft | 407 kts | 2° |
| 2026-05-08 05:33 | 34.57301 | 114.57568 | 20074 ft | 409 kts | 2° |
| 2026-05-08 05:33 | 34.60145 | 114.57832 | 20632 ft | 411 kts | 1° |
| 2026-05-08 05:34 | 34.63007 | 114.58098 | 21170 ft | 414 kts | 1° |
| 2026-05-08 05:34 | 34.65928 | 114.58377 | 21683 ft | 417 kts | 1° |
| 2026-05-08 05:34 | 34.68830 | 114.58656 | 22188 ft | 420 kts | 1° |
| 2026-05-08 05:34 | 34.71710 | 114.58930 | 22669 ft | 423 kts | 1° |
| 2026-05-08 05:35 | 34.74653 | 114.59208 | 23136 ft | 426 kts | 0° |
| 2026-05-08 05:35 | 34.77616 | 114.59490 | 23687 ft | 427 kts | 0° |
| 2026-05-08 05:35 | 34.80569 | 114.59775 | 24247 ft | 425 kts | 0° |
| 2026-05-08 05:35 | 34.83518 | 114.60056 | 24676 ft | 427 kts | 360° |
| 2026-05-08 05:36 | 34.86495 | 114.60337 | 24802 ft | 430 kts | 359° |
| 2026-05-08 05:36 | 34.89459 | 114.60622 | 24793 ft | 427 kts | 359° |
| 2026-05-08 05:36 | 34.92427 | 114.60906 | 25063 ft | 428 kts | 359° |
| 2026-05-08 05:36 | 34.95395 | 114.61190 | 25568 ft | 428 kts | 359° |
| 2026-05-08 05:37 | 34.98381 | 114.61474 | 25796 ft | 433 kts | 359° |
| 2026-05-08 05:37 | 35.01369 | 114.61762 | 25794 ft | 428 kts | 359° |
| 2026-05-08 05:37 | 35.04339 | 114.62048 | 25791 ft | 429 kts | 359° |
| 2026-05-08 05:37 | 35.07310 | 114.62332 | 25788 ft | 428 kts | 359° |
| 2026-05-08 05:38 | 35.10277 | 114.62616 | 25791 ft | 428 kts | 359° |
| 2026-05-08 05:38 | 35.13249 | 114.62902 | 25789 ft | 428 kts | 359° |
| 2026-05-08 05:38 | 35.16220 | 114.63188 | 25789 ft | 428 kts | 359° |
| 2026-05-08 05:38 | 35.19190 | 114.63475 | 25788 ft | 428 kts | 359° |
| 2026-05-08 05:39 | 35.22156 | 114.63760 | 25784 ft | 428 kts | 359° |
| 2026-05-08 05:39 | 35.25128 | 114.64046 | 25785 ft | 428 kts | 359° |
| 2026-05-08 05:39 | 35.28098 | 114.64333 | 25790 ft | 428 kts | 359° |
| 2026-05-08 05:39 | 35.31066 | 114.64620 | 25787 ft | 428 kts | 359° |
| 2026-05-08 05:40 | 35.34029 | 114.64906 | 25788 ft | 427 kts | 359° |
| 2026-05-08 05:40 | 35.36992 | 114.65192 | 25788 ft | 427 kts | 359° |
| 2026-05-08 05:40 | 35.39953 | 114.65479 | 25782 ft | 427 kts | 359° |
| 2026-05-08 05:40 | 35.42932 | 114.65766 | 25786 ft | 434 kts | 359° |
| 2026-05-08 05:41 | 35.45947 | 114.66053 | 25789 ft | 447 kts | 359° |
| 2026-05-08 05:41 | 35.49088 | 114.66357 | 25789 ft | 459 kts | 359° |
| 2026-05-08 05:41 | 35.52313 | 114.66673 | 25786 ft | 470 kts | 359° |
| 2026-05-08 05:41 | 35.55611 | 114.66995 | 25780 ft | 481 kts | 359° |
| 2026-05-08 05:42 | 35.58979 | 114.67321 | 25783 ft | 490 kts | 359° |
| 2026-05-08 05:42 | 35.62404 | 114.67654 | 25776 ft | 498 kts | 359° |
| 2026-05-08 05:42 | 35.65881 | 114.67994 | 25782 ft | 505 kts | 359° |
| 2026-05-08 05:42 | 35.69409 | 114.68340 | 25772 ft | 512 kts | 359° |
| 2026-05-08 05:43 | 35.72974 | 114.68686 | 25776 ft | 514 kts | 359° |
| 2026-05-08 05:43 | 35.76519 | 114.69036 | 25768 ft | 510 kts | 359° |
| 2026-05-08 05:43 | 35.80066 | 114.69383 | 25772 ft | 512 kts | 359° |
| 2026-05-08 05:43 | 35.83605 | 114.69728 | 25764 ft | 510 kts | 359° |
| 2026-05-08 05:44 | 35.87151 | 114.70074 | 25767 ft | 511 kts | 359° |
| 2026-05-08 05:44 | 35.90688 | 114.70421 | 25765 ft | 510 kts | 359° |
| 2026-05-08 05:44 | 35.94226 | 114.70769 | 25761 ft | 510 kts | 359° |
| 2026-05-08 05:44 | 35.97767 | 114.71116 | 25761 ft | 510 kts | 359° |
| 2026-05-08 05:45 | 36.01299 | 114.71463 | 25759 ft | 509 kts | 359° |
| 2026-05-08 05:45 | 36.04845 | 114.71813 | 25756 ft | 513 kts | 358° |
| 2026-05-08 05:45 | 36.08394 | 114.72035 | 25749 ft | 506 kts | 352° |
| 2026-05-08 05:45 | 36.11801 | 114.71494 | 25748 ft | 496 kts | 341° |
| 2026-05-08 05:46 | 36.15009 | 114.70221 | 25735 ft | 470 kts | 331° |
| 2026-05-08 05:46 | 36.17818 | 114.68259 | 25746 ft | 462 kts | 319° |
| 2026-05-08 05:46 | 36.20195 | 114.65601 | 25752 ft | 458 kts | 308° |
| 2026-05-08 05:46 | 36.22020 | 114.62401 | 25750 ft | 455 kts | 296° |
| 2026-05-08 05:47 | 36.23222 | 114.58789 | 25749 ft | 453 kts | 285° |
| 2026-05-08 05:47 | 36.23744 | 114.54950 | 25748 ft | 454 kts | 274° |
| 2026-05-08 05:47 | 36.23635 | 114.51045 | 25750 ft | 456 kts | 264° |
| 2026-05-08 05:47 | 36.22836 | 114.47233 | 25744 ft | 461 kts | 252° |
| 2026-05-08 05:48 | 36.21058 | 114.43939 | 25825 ft | 481 kts | 221° |
| 2026-05-08 05:48 | 36.18010 | 114.42085 | 25808 ft | 503 kts | 200° |
| 2026-05-08 05:48 | 36.14465 | 114.41843 | 25231 ft | 518 kts | 178° |
| 2026-05-08 05:48 | 36.11102 | 114.42222 | 27077 ft | 455 kts | 185° |
| 2026-05-08 05:49 | 36.08128 | 114.42923 | 29585 ft | 428 kts | 166° |
| 2026-05-08 05:49 | 36.05409 | 114.44412 | 30379 ft | 436 kts | 161° |
| 2026-05-08 05:49 | 36.02655 | 114.46243 | 29814 ft | 469 kts | 155° |
| 2026-05-08 05:49 | 36.00244 | 114.49117 | 29553 ft | 508 kts | 100° |
| 2026-05-08 05:50 | 36.00092 | 114.53422 | 27582 ft | 527 kts | 75° |
| 2026-05-08 05:50 | 36.01367 | 114.57622 | 27242 ft | 513 kts | 63° |
| 2026-05-08 05:50 | 36.02509 | 114.61735 | 27199 ft | 499 kts | 71° |
| 2026-05-08 05:50 | 36.03457 | 114.65795 | 27120 ft | 485 kts | 69° |
| 2026-05-08 05:51 | 36.04803 | 114.69529 | 27075 ft | 470 kts | 53° |
| 2026-05-08 05:51 | 36.06629 | 114.72460 | 27044 ft | 463 kts | 38° |